Pattani, Thailand

2:59 PM ICT on June 02, 2015 (GMT +0700)
Hat Yai International | | Change Station
CLOSE
Current Station
Airport
Location: Hat Yai,
Elevation: 89 ft
Nearby Weather Stations

Elev 89 ft 6.93 °N, 100.39 °E | Updated 29 minutes ago

Light Rain
Light Rain
77 °F
Feels Like 77 °F
N
5
Wind Variable Wind from South

Today
High -- | Low -- °F
--% Chance of Precip.
Yesterday
High -- | Low -- °F
Precip. -- in
5:58 AM 6:28 PM
Full, 100% visible
Pressure 29.77 in
Visibility 5.6 miles
Clouds Few 1800 ft
Scattered Clouds 2000 ft
Mostly Cloudy 12000 ft
Dew Point 75 °F
Humidity 94%
Rainfall 0.00 in
Snow Depth Not available.
UV 6 out of 12
Pollen Not available.
Air Quality Not available.
Flu Activity Not available.
METAR VTSS 020730Z 17004KT 9000 -RA FEW018CB SCT020 BKN120 25/24 Q1008 A2979 NOSIG

More Conditions Fewer Conditions

Pressure 29.77 in
Visibility 5.6 miles
Clouds Few 1800 ft
Scattered Clouds 2000 ft
Mostly Cloudy 12000 ft
Dew Point 75 °F
Humidity 94%
Rainfall 0.00 in
Snow Depth Not available.
UV 6 out of 12
Pollen Not available.
Air Quality Not available.
Flu Activity Not available.
METAR VTSS 020730Z 17004KT 9000 -RA FEW018CB SCT020 BKN120 25/24 Q1008 A2979 NOSIG

More Conditions Fewer Conditions

10-Day Weather Forecast

Almanac

Astronomy

Jun. 02, 2015 Rise Set
Actual Time
Civil Twilight
Nautical Twilight
Astronomical Twilight
Moon
Length of Visible Light
Length of Day
Tomorrow will be .
, % of the Moon is Illuminated

Today's Extremes

Country Highs Country Lows

Community

WunderPhotos

Upload Photos

1,825,905 photos uploaded!

WunderBlogs® & News

Nearby

Air Quality

  Air Quality AQ Index Pollutant
Not available.

Snow Depth

Station Depth Elevation

Earthquake Activity

City Distance Mag. Time & Date
Minimum magnitude displayed is 2.5.

Coastal Water Temperatures

Place Temperature

Stations

Nearby Weather Stations

Station Location Temp. Windchill Dew Point Humidity Wind Precip. Elev Updated Type